createdAt,value
2023-04-26T00:02:01.187Z,64.42
2023-04-26T00:04:29.521Z,64.60
2023-04-26T00:06:57.048Z,65.51
2023-04-26T00:09:23.956Z,65.66
2023-04-26T00:11:51.206Z,65.70
2023-04-26T00:14:18.290Z,65.73
2023-04-26T00:16:45.440Z,65.76
2023-04-26T00:19:12.908Z,66.39
2023-04-26T00:21:40.312Z,66.42
2023-04-26T00:24:07.957Z,67.20
2023-04-26T00:26:35.175Z,66.80
2023-04-26T00:29:04.205Z,67.18
2023-04-26T00:31:31.324Z,67.50
2023-04-26T00:33:58.284Z,67.82
2023-04-26T00:36:25.257Z,68.13
2023-04-26T00:38:53.227Z,67.71
2023-04-26T00:41:20.522Z,68.55
2023-04-26T00:43:47.834Z,68.34
2023-04-26T00:46:14.917Z,68.75
2023-04-26T00:48:42.616Z,68.63
2023-04-26T00:51:09.881Z,69.15
2023-04-26T00:53:37.136Z,69.39
2023-04-26T00:56:08.077Z,69.83
2023-04-26T00:58:35.158Z,69.91
2023-04-26T01:01:02.803Z,70.00
2023-04-26T01:03:30.493Z,70.31
2023-04-26T01:05:58.339Z,70.57
2023-04-26T01:08:25.690Z,70.62
2023-04-26T01:10:53.409Z,71.11
2023-04-26T01:13:21.074Z,71.13
2023-04-26T01:15:48.691Z,71.26
2023-04-26T01:18:15.799Z,71.50
2023-04-26T01:20:43.406Z,71.41
2023-04-26T01:23:11.893Z,72.07
2023-04-26T01:25:39.444Z,71.87
2023-04-26T01:28:06.517Z,72.15
2023-04-26T01:30:33.437Z,72.39
2023-04-26T01:33:03.393Z,72.35
2023-04-26T01:35:30.407Z,72.49
2023-04-26T01:37:57.369Z,72.57
2023-04-26T01:40:24.349Z,72.89
2023-04-26T01:42:51.374Z,72.61
2023-04-26T01:45:18.471Z,72.66
2023-04-26T01:48:04.324Z,72.17
2023-04-26T01:50:33.102Z,72.51
2023-04-26T01:53:00.023Z,72.97
2023-04-26T01:55:27.091Z,72.77
2023-04-26T01:57:54.057Z,72.67
2023-04-26T02:00:21.121Z,72.85
2023-04-26T02:02:49.729Z,73.27
2023-04-26T02:05:16.788Z,73.19
2023-04-26T02:07:43.867Z,72.98
2023-04-26T02:10:11.099Z,73.53
2023-04-26T02:12:38.471Z,73.71
2023-04-26T02:15:06.330Z,73.64
2023-04-26T02:17:37.828Z,73.80
2023-04-26T02:20:05.334Z,73.83
2023-04-26T02:22:32.368Z,73.49
2023-04-26T02:24:59.501Z,73.67
2023-04-26T02:27:28.019Z,73.60
2023-04-26T02:29:55.534Z,73.29
2023-04-26T02:32:22.570Z,73.42
2023-04-26T02:34:50.741Z,73.65
2023-04-26T02:37:17.832Z,74.02
2023-04-26T02:39:45.156Z,73.66
2023-04-26T02:42:13.309Z,73.75
2023-04-26T02:44:41.334Z,74.19
2023-04-26T02:47:08.546Z,74.46
2023-04-26T02:49:35.857Z,74.83
2023-04-26T02:52:02.906Z,74.68
2023-04-26T02:54:31.364Z,74.72
2023-04-26T02:56:59.004Z,75.45
2023-04-26T02:59:27.466Z,74.93
2023-04-26T03:01:55.685Z,75.02
2023-04-26T03:04:23.862Z,75.07
2023-04-26T03:06:50.826Z,75.35
2023-04-26T03:09:17.983Z,75.78
2023-04-26T03:11:45.873Z,75.35
2023-04-26T03:14:13.424Z,75.37
2023-04-26T03:16:44.753Z,75.80
2023-04-26T03:19:11.930Z,75.86
2023-04-26T03:21:40.626Z,75.70
2023-04-26T03:24:07.872Z,75.76
2023-04-26T03:26:34.837Z,75.85
2023-04-26T03:29:03.186Z,75.54
2023-04-26T03:31:30.341Z,76.00
2023-04-26T03:33:57.304Z,75.36
2023-04-26T03:36:24.421Z,75.61
2023-04-26T03:38:52.145Z,75.44
2023-04-26T03:41:20.460Z,76.09
2023-04-26T03:43:47.509Z,75.78
2023-04-26T03:46:14.613Z,76.08
2023-04-26T03:48:41.697Z,76.58
2023-04-26T03:51:08.685Z,76.47
2023-04-26T03:53:35.754Z,76.65
2023-04-26T03:56:02.746Z,77.13
2023-04-26T03:58:31.348Z,76.50
2023-04-26T04:01:01.085Z,76.83
2023-04-26T04:03:30.659Z,76.81
2023-04-26T04:05:57.923Z,77.29
2023-04-26T04:08:24.920Z,76.97
2023-04-26T04:10:52.033Z,77.09
2023-04-26T04:13:19.652Z,77.26
2023-04-26T04:15:47.428Z,77.24
2023-04-26T04:18:14.468Z,77.09
2023-04-26T04:20:42.111Z,77.77
2023-04-26T04:23:10.161Z,77.48
2023-04-26T04:25:39.663Z,77.84
2023-04-26T04:28:09.529Z,77.79
2023-04-26T04:30:37.046Z,77.36
2023-04-26T04:33:05.471Z,77.95
2023-04-26T04:35:34.299Z,77.66
2023-04-26T04:38:04.474Z,77.78
2023-04-26T04:40:33.405Z,77.81
2023-04-26T04:43:01.148Z,78.38
2023-04-26T04:45:29.623Z,78.13
2023-04-26T04:47:58.368Z,78.04
2023-04-26T04:50:26.777Z,78.40
2023-04-26T04:52:53.833Z,78.16
2023-04-26T04:55:20.986Z,78.32
2023-04-26T04:57:47.936Z,78.28
2023-04-26T05:00:15.960Z,78.41
2023-04-26T05:03:06.109Z,77.92
2023-04-26T05:05:33.144Z,78.56
2023-04-26T05:08:00.146Z,78.81
2023-04-26T05:10:27.203Z,78.11
2023-04-26T05:12:54.301Z,78.13
2023-04-26T05:15:21.523Z,78.18
2023-04-26T05:17:48.572Z,78.84
2023-04-26T05:20:18.561Z,78.45
2023-04-26T05:22:46.922Z,78.74
2023-04-26T05:25:14.177Z,78.88
2023-04-26T05:27:42.008Z,78.52
2023-04-26T05:30:27.420Z,78.32
2023-04-26T05:33:04.634Z,78.48
2023-04-26T05:35:54.719Z,78.48
2023-04-26T05:38:25.040Z,78.91
2023-04-26T05:40:52.515Z,78.94
2023-04-26T05:43:19.717Z,78.84
2023-04-26T05:45:53.514Z,79.49
2023-04-26T05:48:21.896Z,80.03
2023-04-26T05:50:49.975Z,78.33
2023-04-26T05:53:17.524Z,78.69
2023-04-26T05:55:46.993Z,78.93
2023-04-26T05:58:14.798Z,78.58
2023-04-26T06:00:42.691Z,78.59
2023-04-26T06:03:10.079Z,78.78
2023-04-26T06:05:41.474Z,78.90
2023-04-26T06:08:09.503Z,79.38
2023-04-26T06:10:37.792Z,78.89
2023-04-26T06:13:07.045Z,78.89
2023-04-26T06:15:36.713Z,78.38
2023-04-26T06:18:05.478Z,78.73
2023-04-26T06:20:33.098Z,78.57
2023-04-26T06:23:00.042Z,78.69
2023-04-26T06:25:27.160Z,78.44
2023-04-26T06:27:54.179Z,78.12
2023-04-26T06:30:21.285Z,78.32
2023-04-26T06:32:48.643Z,78.51
2023-04-26T06:35:17.297Z,78.19
2023-04-26T06:37:44.319Z,78.62
2023-04-26T06:40:16.005Z,78.51
2023-04-26T06:42:43.726Z,78.03
2023-04-26T06:45:25.525Z,77.96
2023-04-26T06:47:53.395Z,78.08
2023-04-26T06:50:27.651Z,78.19
2023-04-26T06:52:54.631Z,78.11
2023-04-26T06:55:24.859Z,78.03
2023-04-26T06:57:55.565Z,78.02
2023-04-26T07:00:22.889Z,77.95
2023-04-26T07:02:49.853Z,78.15
2023-04-26T07:05:17.575Z,78.01
2023-04-26T07:07:52.223Z,78.00
2023-04-26T07:10:30.157Z,78.02
2023-04-26T07:12:57.664Z,78.22
2023-04-26T07:15:24.891Z,77.58
2023-04-26T07:17:51.959Z,77.66
2023-04-26T07:20:21.212Z,77.81
2023-04-26T07:22:49.595Z,77.88
2023-04-26T07:25:20.709Z,77.58
2023-04-26T07:27:47.750Z,77.73
2023-04-26T07:30:14.842Z,77.57
2023-04-26T07:32:42.045Z,77.46
2023-04-26T07:35:16.128Z,77.58
2023-04-26T07:37:44.316Z,77.57
2023-04-26T07:40:13.540Z,77.26
2023-04-26T07:42:40.631Z,77.44
2023-04-26T07:45:08.751Z,77.66
2023-04-26T07:47:35.983Z,77.37
2023-04-26T07:50:02.936Z,76.86
2023-04-26T07:52:30.482Z,77.16
2023-04-26T07:54:59.029Z,77.44
2023-04-26T07:57:26.283Z,77.39
2023-04-26T07:59:57.011Z,76.75
2023-04-26T08:02:41.000Z,76.61
2023-04-26T08:05:11.632Z,77.21
2023-04-26T08:07:38.953Z,76.61
2023-04-26T08:10:06.768Z,76.81
2023-04-26T08:12:34.645Z,77.01
2023-04-26T08:15:05.817Z,76.66
2023-04-26T08:17:33.620Z,76.87
2023-04-26T08:20:00.803Z,76.67
2023-04-26T08:22:28.089Z,76.25
2023-04-26T08:24:56.219Z,76.50
2023-04-26T08:27:25.928Z,76.15
2023-04-26T08:29:52.860Z,76.22
2023-04-26T08:32:21.730Z,76.52
2023-04-26T08:34:49.245Z,76.20
2023-04-26T08:37:16.329Z,76.26
2023-04-26T08:39:43.260Z,75.85
2023-04-26T08:42:15.321Z,76.03
2023-04-26T08:44:46.947Z,75.78
2023-04-26T08:47:18.118Z,75.64
2023-04-26T08:49:59.465Z,76.24
2023-04-26T08:52:30.902Z,75.77
2023-04-26T08:54:59.632Z,75.94
2023-04-26T08:57:27.533Z,76.31
2023-04-26T08:59:57.931Z,76.00
2023-04-26T09:02:25.338Z,76.10
2023-04-26T09:04:52.829Z,76.17
2023-04-26T09:07:36.128Z,76.30
2023-04-26T09:10:09.364Z,75.56
2023-04-26T09:12:36.651Z,75.82
2023-04-26T09:15:08.018Z,76.12
2023-04-26T09:17:41.852Z,75.72
2023-04-26T09:20:31.952Z,77.37
2023-04-26T09:23:10.161Z,77.30
2023-04-26T09:25:37.896Z,77.13
2023-04-26T09:28:21.611Z,77.54
2023-04-26T09:30:49.028Z,77.69
2023-04-26T09:33:16.455Z,77.69
2023-04-26T09:35:44.258Z,77.80
2023-04-26T09:38:16.313Z,77.98
2023-04-26T09:40:47.864Z,78.13
2023-04-26T09:43:19.946Z,78.65
2023-04-26T09:45:53.008Z,78.36
2023-04-26T09:48:26.256Z,78.31
2023-04-26T09:50:58.454Z,78.67
2023-04-26T09:53:34.765Z,78.39
2023-04-26T09:56:15.885Z,78.60
2023-04-26T09:59:00.960Z,78.64
2023-04-26T10:01:30.223Z,77.83
2023-04-26T10:03:58.626Z,78.09
2023-04-26T10:06:27.391Z,77.50
2023-04-26T10:08:55.872Z,77.59
2023-04-26T10:11:24.839Z,77.23
2023-04-26T10:13:52.219Z,77.20
2023-04-26T10:16:21.098Z,77.45
2023-04-26T10:18:49.458Z,77.08
2023-04-26T10:21:37.234Z,77.65
2023-04-26T10:24:04.928Z,77.14
2023-04-26T10:26:52.926Z,77.18
2023-04-26T10:29:22.360Z,76.92
2023-04-26T10:32:08.883Z,76.36
2023-04-26T10:34:37.559Z,76.26
2023-04-26T10:37:18.391Z,75.13
2023-04-26T10:39:47.173Z,75.35
2023-04-26T10:42:27.828Z,73.94
2023-04-26T10:45:28.350Z,73.67
2023-04-26T10:48:20.169Z,73.28
2023-04-26T10:51:12.857Z,73.77
2023-04-26T10:53:45.718Z,73.77
2023-04-26T10:56:33.677Z,73.59
2023-04-26T10:59:33.093Z,74.09
2023-04-26T11:02:01.702Z,74.24
2023-04-26T11:04:52.313Z,74.26
2023-04-26T11:07:41.204Z,74.19
2023-04-26T11:10:12.622Z,74.32
2023-04-26T11:12:42.492Z,74.17
2023-04-26T11:15:12.487Z,73.77
2023-04-26T11:17:40.835Z,73.48
2023-04-26T11:20:16.468Z,73.13
2023-04-26T11:22:43.498Z,72.88
2023-04-26T11:25:13.930Z,72.86
2023-04-26T11:27:43.707Z,72.56
2023-04-26T11:30:11.898Z,72.40
2023-04-26T11:32:38.935Z,72.06
2023-04-26T11:35:06.265Z,71.42
2023-04-26T11:37:34.927Z,71.49
2023-04-26T11:40:01.966Z,70.88
2023-04-26T11:42:31.267Z,70.67
2023-04-26T11:44:59.766Z,70.52
2023-04-26T11:47:30.893Z,70.14
2023-04-26T11:49:58.475Z,69.28
2023-04-26T11:52:26.668Z,68.61
2023-04-26T11:55:06.283Z,67.72
2023-04-26T11:57:34.642Z,68.58
2023-04-26T12:00:15.102Z,67.82
2023-04-26T12:02:46.805Z,67.75
2023-04-26T12:05:28.493Z,65.60
2023-04-26T12:07:57.411Z,67.55
2023-04-26T12:10:42.880Z,65.22
2023-04-26T12:13:13.991Z,65.81
2023-04-26T12:15:41.078Z,66.07
2023-04-26T12:18:12.533Z,65.37
2023-04-26T12:20:42.816Z,65.46
2023-04-26T12:23:14.644Z,65.60
2023-04-26T12:25:52.631Z,65.88
2023-04-26T12:28:19.803Z,65.78
2023-04-26T12:30:51.203Z,66.04
2023-04-26T12:33:23.123Z,65.51
2023-04-26T12:35:53.387Z,64.99
2023-04-26T12:38:20.735Z,63.97
2023-04-26T12:40:47.931Z,63.84
2023-04-26T12:43:16.890Z,62.71
2023-04-26T12:45:44.007Z,62.19
2023-04-26T12:48:13.728Z,60.62
2023-04-26T12:50:41.549Z,60.01
2023-04-26T12:53:08.637Z,58.53
2023-04-26T12:55:35.794Z,55.95
2023-04-26T12:58:03.314Z,53.93
2023-04-26T13:00:30.894Z,52.82
2023-04-26T13:02:58.193Z,52.73
2023-04-26T13:05:25.630Z,51.74
2023-04-26T13:07:52.766Z,50.87
2023-04-26T13:10:20.217Z,49.37
2023-04-26T13:12:47.380Z,48.18
2023-04-26T13:15:16.204Z,47.00
2023-04-26T13:17:45.778Z,45.75
2023-04-26T13:20:13.308Z,44.43
2023-04-26T13:22:42.536Z,42.62
2023-04-26T13:25:13.415Z,41.87
2023-04-26T13:27:40.486Z,40.93
2023-04-26T13:30:08.680Z,40.10
2023-04-26T13:32:36.440Z,39.01
2023-04-26T13:35:04.381Z,39.12
2023-04-26T13:37:31.908Z,38.16
2023-04-26T13:39:59.077Z,39.03
2023-04-26T13:42:26.470Z,39.32
2023-04-26T13:44:53.350Z,40.11
2023-04-26T13:47:20.925Z,40.13
2023-04-26T13:49:48.016Z,40.27
2023-04-26T13:52:15.016Z,39.48
2023-04-26T13:54:41.948Z,38.49
2023-04-26T13:57:09.042Z,37.47
2023-04-26T13:59:36.153Z,36.37
2023-04-26T14:02:03.896Z,35.93
2023-04-26T14:04:31.400Z,35.47
2023-04-26T14:06:58.864Z,34.89
2023-04-26T14:09:26.066Z,34.57
2023-04-26T14:12:00.863Z,34.28
2023-04-26T14:14:34.758Z,34.28
2023-04-26T14:17:01.880Z,34.05
2023-04-26T14:19:28.805Z,34.02
2023-04-26T14:21:55.764Z,33.93
2023-04-26T14:24:22.900Z,33.76
2023-04-26T14:26:49.919Z,33.06
2023-04-26T14:29:16.866Z,33.00
2023-04-26T14:31:44.217Z,33.11
2023-04-26T14:34:11.232Z,32.97
2023-04-26T14:36:38.196Z,33.10
2023-04-26T14:39:05.750Z,33.47
2023-04-26T14:41:32.922Z,33.50
2023-04-26T14:43:59.923Z,33.83
2023-04-26T14:46:27.037Z,33.92
2023-04-26T14:48:54.174Z,34.29
2023-04-26T14:51:21.115Z,34.42
2023-04-26T14:53:48.037Z,34.73
2023-04-26T14:56:15.269Z,35.17
2023-04-26T14:58:42.244Z,35.63
2023-04-26T15:01:09.479Z,36.21
2023-04-26T15:03:36.654Z,36.88
2023-04-26T15:06:03.993Z,37.00
2023-04-26T15:08:30.983Z,37.33
2023-04-26T15:10:58.020Z,37.41
2023-04-26T15:13:24.960Z,37.68
2023-04-26T15:15:52.133Z,37.76
2023-04-26T15:18:19.196Z,38.27
2023-04-26T15:20:46.299Z,38.47
2023-04-26T15:23:13.501Z,38.66
2023-04-26T15:25:43.489Z,38.75
2023-04-26T15:28:10.418Z,38.80
2023-04-26T15:30:37.441Z,38.87
2023-04-26T15:33:04.523Z,39.03
2023-04-26T15:35:31.744Z,39.17
2023-04-26T15:37:58.705Z,39.14
2023-04-26T15:40:25.919Z,39.35
2023-04-26T15:42:52.931Z,39.65
2023-04-26T15:45:20.364Z,40.01
2023-04-26T15:47:47.526Z,40.03
2023-04-26T15:50:14.812Z,40.19
2023-04-26T15:52:44.724Z,40.22
2023-04-26T15:55:12.027Z,40.29
2023-04-26T15:57:42.007Z,40.15
2023-04-26T16:00:09.923Z,39.96
2023-04-26T16:02:37.576Z,39.73
2023-04-26T16:05:05.358Z,39.62
2023-04-26T16:07:32.918Z,39.98
2023-04-26T16:09:59.931Z,40.44
2023-04-26T16:12:26.951Z,40.93
2023-04-26T16:14:57.893Z,41.32
2023-04-26T16:17:25.017Z,41.61
2023-04-26T16:19:54.706Z,41.83
2023-04-26T16:22:23.816Z,42.10
2023-04-26T16:24:50.836Z,42.20
2023-04-26T16:27:22.411Z,42.17
2023-04-26T16:29:52.027Z,42.66
2023-04-26T16:32:19.196Z,42.94
2023-04-26T16:34:46.317Z,43.09
2023-04-26T16:37:14.796Z,43.14
2023-04-26T16:39:41.977Z,43.13
2023-04-26T16:42:08.977Z,42.89
2023-04-26T16:44:36.181Z,42.96
2023-04-26T16:47:04.096Z,43.26
2023-04-26T16:49:31.126Z,43.26
2023-04-26T16:51:59.086Z,43.71
2023-04-26T16:54:26.671Z,43.72
2023-04-26T16:56:57.018Z,43.96
2023-04-26T16:59:24.060Z,44.37
2023-04-26T17:01:52.185Z,44.35
2023-04-26T17:04:19.498Z,44.33
2023-04-26T17:06:46.719Z,44.81
2023-04-26T17:09:16.717Z,44.73
2023-04-26T17:11:44.965Z,44.76
2023-04-26T17:14:14.207Z,45.31
2023-04-26T17:16:41.238Z,45.43
2023-04-26T17:19:08.390Z,45.53
2023-04-26T17:21:35.324Z,45.87
2023-04-26T17:24:02.342Z,46.15
2023-04-26T17:26:32.712Z,46.27
2023-04-26T17:28:59.800Z,46.50
2023-04-26T17:31:26.803Z,46.37
2023-04-26T17:33:57.241Z,46.75
2023-04-26T17:36:24.390Z,46.79
2023-04-26T17:38:51.758Z,47.04
2023-04-26T17:41:18.880Z,47.10
2023-04-26T17:43:46.201Z,47.00
2023-04-26T17:46:13.560Z,47.23
2023-04-26T17:48:43.009Z,47.49
2023-04-26T17:51:13.042Z,47.54
2023-04-26T17:53:45.571Z,47.70
2023-04-26T17:56:12.695Z,47.63
2023-04-26T17:58:40.884Z,47.78
2023-04-26T18:01:07.860Z,47.86
2023-04-26T18:03:35.997Z,48.06
2023-04-26T18:06:03.690Z,48.29
2023-04-26T18:08:30.885Z,48.48
2023-04-26T18:10:58.436Z,48.62
2023-04-26T18:13:25.560Z,48.61
2023-04-26T18:15:54.995Z,48.93
2023-04-26T18:18:27.266Z,48.94
2023-04-26T18:20:54.920Z,49.05
2023-04-26T18:23:22.135Z,49.17
2023-04-26T18:25:50.613Z,49.51
2023-04-26T18:28:17.688Z,49.44
2023-04-26T18:30:44.859Z,49.48
2023-04-26T18:33:12.081Z,49.58
2023-04-26T18:35:39.450Z,49.85
2023-04-26T18:38:06.522Z,49.85
2023-04-26T18:40:33.724Z,50.17
2023-04-26T18:43:01.594Z,50.23
2023-04-26T18:45:28.891Z,50.14
2023-04-26T18:47:56.460Z,50.69
2023-04-26T18:50:23.655Z,50.73
2023-04-26T18:52:50.677Z,50.92
2023-04-26T18:55:20.778Z,51.04
2023-04-26T18:57:47.943Z,51.10
2023-04-26T19:00:16.261Z,51.45
2023-04-26T19:02:43.427Z,51.42
2023-04-26T19:05:11.435Z,51.09
2023-04-26T19:07:39.358Z,51.88
2023-04-26T19:10:07.609Z,51.87
2023-04-26T19:12:34.709Z,52.05
2023-04-26T19:15:02.054Z,52.20
2023-04-26T19:17:33.466Z,52.20
2023-04-26T19:20:00.544Z,52.56
2023-04-26T19:22:27.750Z,52.33
2023-04-26T19:24:54.893Z,52.37
2023-04-26T19:27:21.797Z,52.77
2023-04-26T19:29:48.736Z,52.94
2023-04-26T19:32:15.823Z,52.63
2023-04-26T19:34:43.532Z,52.92
2023-04-26T19:37:10.523Z,53.10
2023-04-26T19:39:37.831Z,53.15
2023-04-26T19:42:04.905Z,53.45
2023-04-26T19:44:32.100Z,53.68
2023-04-26T19:46:59.207Z,54.02
2023-04-26T19:49:28.932Z,54.17
2023-04-26T19:51:56.203Z,54.05
2023-04-26T19:54:23.302Z,54.00
2023-04-26T19:56:50.450Z,53.97
2023-04-26T19:59:17.394Z,54.00
2023-04-26T20:01:44.360Z,54.71
2023-04-26T20:04:11.546Z,54.73
2023-04-26T20:06:38.581Z,54.68
2023-04-26T20:09:07.149Z,54.93
2023-04-26T20:11:34.410Z,54.98
2023-04-26T20:14:01.459Z,55.02
2023-04-26T20:16:28.786Z,55.21
2023-04-26T20:18:55.806Z,54.88
2023-04-26T20:21:23.014Z,55.51
2023-04-26T20:23:49.939Z,55.14
2023-04-26T20:26:16.972Z,55.46
2023-04-26T20:28:43.968Z,55.13
2023-04-26T20:31:11.040Z,55.62
2023-04-26T20:33:38.137Z,55.30
2023-04-26T20:36:05.487Z,55.75
2023-04-26T20:38:32.932Z,55.46
2023-04-26T20:41:00.494Z,55.79
2023-04-26T20:43:27.717Z,55.48
2023-04-26T20:45:54.901Z,55.82
2023-04-26T20:48:22.327Z,55.47
2023-04-26T20:50:49.425Z,55.91
2023-04-26T20:53:16.777Z,56.03
2023-04-26T20:55:43.814Z,55.78
2023-04-26T20:58:10.811Z,56.20
2023-04-26T21:00:37.830Z,56.25
2023-04-26T21:03:05.014Z,56.20
2023-04-26T21:05:32.207Z,56.86
2023-04-26T21:07:59.209Z,56.82
2023-04-26T21:10:26.326Z,56.40
2023-04-26T21:12:53.663Z,56.71
2023-04-26T21:15:21.248Z,56.80
2023-04-26T21:17:48.453Z,57.33
2023-04-26T21:20:15.571Z,57.00
2023-04-26T21:22:42.475Z,56.92
2023-04-26T21:25:10.679Z,57.38
2023-04-26T21:27:37.901Z,57.41
2023-04-26T21:30:07.945Z,57.38
2023-04-26T21:32:40.467Z,57.65
2023-04-26T21:35:08.866Z,57.57
2023-04-26T21:37:36.958Z,57.67
2023-04-26T21:40:05.479Z,57.73
2023-04-26T21:42:33.296Z,57.28
2023-04-26T21:45:01.274Z,57.46
2023-04-26T21:47:30.428Z,57.97
2023-04-26T21:49:58.213Z,57.83
2023-04-26T21:52:25.507Z,58.20
2023-04-26T21:54:52.944Z,58.34
2023-04-26T21:57:24.214Z,57.78
2023-04-26T21:59:51.504Z,57.76
2023-04-26T22:02:19.096Z,58.89
2023-04-26T22:04:46.330Z,58.68
2023-04-26T22:07:13.359Z,58.55
2023-04-26T22:09:40.560Z,59.06
2023-04-26T22:12:07.545Z,58.62
2023-04-26T22:14:35.208Z,59.24
2023-04-26T22:17:02.541Z,58.70
2023-04-26T22:19:29.534Z,59.00
2023-04-26T22:21:56.594Z,59.15
2023-04-26T22:24:23.623Z,59.63
2023-04-26T22:26:50.767Z,59.37
2023-04-26T22:29:17.941Z,59.98
2023-04-26T22:31:47.995Z,59.81
2023-04-26T22:34:15.062Z,59.87
2023-04-26T22:36:42.116Z,59.73
2023-04-26T22:39:09.349Z,59.93
2023-04-26T22:41:36.800Z,59.98
2023-04-26T22:44:04.221Z,60.16
2023-04-26T22:46:31.578Z,59.76
2023-04-26T22:49:01.705Z,60.05
2023-04-26T22:51:28.848Z,60.19
2023-04-26T22:53:56.025Z,60.14
2023-04-26T22:56:22.956Z,60.87
2023-04-26T22:58:50.099Z,60.48
2023-04-26T23:01:17.250Z,61.15
2023-04-26T23:03:44.469Z,60.86
2023-04-26T23:06:11.587Z,60.67
2023-04-26T23:08:38.501Z,61.22
2023-04-26T23:11:09.167Z,61.64
2023-04-26T23:13:36.441Z,61.14
2023-04-26T23:16:04.665Z,61.07
2023-04-26T23:18:31.931Z,60.88
2023-04-26T23:20:58.898Z,60.71
2023-04-26T23:23:26.802Z,60.66
2023-04-26T23:25:54.208Z,60.88
2023-04-26T23:28:21.202Z,61.31
2023-04-26T23:30:48.902Z,60.73
2023-04-26T23:33:16.767Z,61.20
2023-04-26T23:35:43.842Z,61.39
2023-04-26T23:38:10.851Z,61.21
2023-04-26T23:40:37.885Z,60.74
2023-04-26T23:43:06.317Z,61.54
2023-04-26T23:45:33.504Z,61.02
2023-04-26T23:48:00.964Z,61.28
2023-04-26T23:50:28.208Z,61.77
2023-04-26T23:52:55.637Z,61.88
2023-04-26T23:55:24.000Z,61.35
2023-04-26T23:57:51.123Z,61.94
